createdAt,value
2022-11-16T00:02:18.034Z,8.47
2022-11-16T00:04:47.097Z,9.73
2022-11-16T00:07:16.195Z,14.57
2022-11-16T00:09:45.687Z,11.93
2022-11-16T00:12:14.837Z,12.57
2022-11-16T00:14:43.756Z,9.33
2022-11-16T00:17:12.674Z,9.97
2022-11-16T00:19:43.050Z,10.87
2022-11-16T00:22:12.390Z,9.50
2022-11-16T00:24:41.305Z,8.60
2022-11-16T00:27:10.450Z,12.57
2022-11-16T00:29:39.355Z,11.47
2022-11-16T00:32:09.254Z,9.70
2022-11-16T00:34:38.317Z,9.53
2022-11-16T00:37:09.166Z,9.00
2022-11-16T00:39:38.713Z,9.60
2022-11-16T00:42:07.805Z,9.47
2022-11-16T00:44:39.053Z,10.07
2022-11-16T00:47:08.011Z,9.13
2022-11-16T00:49:38.738Z,7.93
2022-11-16T00:52:11.932Z,8.63
2022-11-16T00:54:41.008Z,10.03
2022-11-16T00:57:12.701Z,9.20
2022-11-16T00:59:41.689Z,9.20
2022-11-16T01:02:10.680Z,10.60
2022-11-16T01:04:43.009Z,9.97
2022-11-16T01:07:13.718Z,11.50
2022-11-16T01:09:42.896Z,11.13
2022-11-16T01:12:10.959Z,12.40
2022-11-16T01:14:40.069Z,11.50
2022-11-16T01:17:09.473Z,12.33
2022-11-16T01:19:40.005Z,9.17
2022-11-16T01:22:10.257Z,8.83
2022-11-16T01:24:40.839Z,12.50
2022-11-16T01:27:10.267Z,12.67
2022-11-16T01:29:41.904Z,10.27
2022-11-16T01:32:11.580Z,11.47
2022-11-16T01:34:40.787Z,13.53
2022-11-16T01:37:22.697Z,11.63
2022-11-16T01:39:55.254Z,12.57
2022-11-16T01:42:24.898Z,12.30
2022-11-16T01:45:02.607Z,9.60
2022-11-16T01:47:34.701Z,13.20
2022-11-16T01:50:11.044Z,10.07
2022-11-16T01:52:43.905Z,9.93
2022-11-16T01:55:17.128Z,9.93
2022-11-16T01:57:58.510Z,13.43
2022-11-16T02:00:28.776Z,11.37
2022-11-16T02:03:13.682Z,10.87
2022-11-16T02:05:55.589Z,9.47
2022-11-16T02:08:51.704Z,8.73
2022-11-16T02:11:39.056Z,10.03
2022-11-16T02:14:15.798Z,9.17
2022-11-16T02:16:48.600Z,12.40
2022-11-16T02:19:34.689Z,8.67
2022-11-16T02:22:08.393Z,11.17
2022-11-16T02:24:45.177Z,10.40
2022-11-16T02:27:34.844Z,8.57
2022-11-16T02:30:05.841Z,7.80
2022-11-16T02:32:37.474Z,7.23
2022-11-16T02:35:08.185Z,10.97
2022-11-16T02:37:39.707Z,9.50
2022-11-16T02:40:12.664Z,7.00
2022-11-16T02:42:43.217Z,12.13
2022-11-16T02:45:15.950Z,7.27
2022-11-16T02:47:45.640Z,9.13
2022-11-16T02:50:16.655Z,8.27
2022-11-16T02:52:46.213Z,8.20
2022-11-16T02:55:15.573Z,8.93
2022-11-16T02:57:53.734Z,8.43
2022-11-16T03:00:25.749Z,8.77
2022-11-16T03:03:09.957Z,10.10
2022-11-16T03:05:40.375Z,8.60
2022-11-16T03:08:15.782Z,9.17
2022-11-16T03:11:03.328Z,7.87
2022-11-16T03:13:35.851Z,9.20
2022-11-16T03:16:09.641Z,8.20
2022-11-16T03:18:38.926Z,9.43
2022-11-16T03:21:13.163Z,7.80
2022-11-16T03:23:42.333Z,9.27
2022-11-16T03:26:11.444Z,6.63
2022-11-16T03:28:44.456Z,7.53
2022-11-16T03:31:16.843Z,10.20
2022-11-16T03:33:47.178Z,8.63
2022-11-16T03:36:18.797Z,7.90
2022-11-16T03:38:50.953Z,7.83
2022-11-16T03:41:20.573Z,7.43
2022-11-16T03:43:53.174Z,7.90
2022-11-16T03:46:23.650Z,6.73
2022-11-16T03:48:57.431Z,8.57
2022-11-16T03:51:28.799Z,7.63
2022-11-16T03:53:57.717Z,5.83
2022-11-16T03:56:27.736Z,5.90
2022-11-16T03:58:56.781Z,4.70
2022-11-16T04:01:27.716Z,3.97
2022-11-16T04:03:56.696Z,3.80
2022-11-16T04:06:45.698Z,3.13
2022-11-16T04:09:31.885Z,2.73
2022-11-16T04:12:17.903Z,3.80
2022-11-16T04:15:04.082Z,4.33
2022-11-16T04:17:55.609Z,6.83
2022-11-16T04:20:50.559Z,5.57
2022-11-16T04:23:37.502Z,5.97
2022-11-16T04:26:08.279Z,6.83
2022-11-16T04:28:37.574Z,6.33
2022-11-16T04:31:24.531Z,5.73
2022-11-16T04:34:20.025Z,4.77
2022-11-16T04:37:19.074Z,5.63
2022-11-16T04:39:49.799Z,6.20
2022-11-16T04:42:20.046Z,7.70
2022-11-16T04:45:09.771Z,8.47
2022-11-16T04:47:51.910Z,5.67
2022-11-16T04:50:24.055Z,5.97
2022-11-16T04:52:53.476Z,6.30
2022-11-16T04:55:22.570Z,5.67
2022-11-16T04:57:54.350Z,5.63
2022-11-16T05:00:23.583Z,5.90
2022-11-16T05:02:58.198Z,7.07
2022-11-16T05:05:32.111Z,6.43
2022-11-16T05:08:02.219Z,7.00
2022-11-16T05:10:33.835Z,8.17
2022-11-16T05:13:03.369Z,6.33
2022-11-16T05:15:32.724Z,7.13
2022-11-16T05:18:03.843Z,5.70
2022-11-16T05:20:57.579Z,5.70
2022-11-16T05:23:43.840Z,6.67
2022-11-16T05:26:15.997Z,4.27
2022-11-16T05:28:44.968Z,3.53
2022-11-16T05:31:15.455Z,4.23
2022-11-16T05:33:44.722Z,3.73
2022-11-16T05:36:18.145Z,3.53
2022-11-16T05:39:01.951Z,5.17
2022-11-16T05:41:35.584Z,5.63
2022-11-16T05:44:07.833Z,6.23
2022-11-16T05:46:36.833Z,5.53
2022-11-16T05:49:08.111Z,7.83
2022-11-16T05:51:39.820Z,5.57
2022-11-16T05:54:09.601Z,5.50
2022-11-16T05:56:38.600Z,5.50
2022-11-16T05:59:11.252Z,4.90
2022-11-16T06:01:45.055Z,5.33
2022-11-16T06:04:14.820Z,6.40
2022-11-16T06:06:49.075Z,4.90
2022-11-16T06:09:18.002Z,4.90
2022-11-16T06:11:48.391Z,5.73
2022-11-16T06:14:18.147Z,5.70
2022-11-16T06:16:47.246Z,6.80
2022-11-16T06:19:17.077Z,8.07
2022-11-16T06:21:46.046Z,8.33
2022-11-16T06:24:21.851Z,5.00
2022-11-16T06:26:51.236Z,7.80
2022-11-16T06:29:20.199Z,6.13
2022-11-16T06:31:49.211Z,6.23
2022-11-16T06:34:19.067Z,5.10
2022-11-16T06:36:47.995Z,5.03
2022-11-16T06:39:17.812Z,7.13
2022-11-16T06:41:51.326Z,6.00
2022-11-16T06:44:20.528Z,6.83
2022-11-16T06:46:57.571Z,6.40
2022-11-16T06:49:26.553Z,5.17
2022-11-16T06:51:59.899Z,5.00
2022-11-16T06:54:29.372Z,4.60
2022-11-16T06:57:00.078Z,5.23
2022-11-16T06:59:29.462Z,4.10
2022-11-16T07:02:00.904Z,4.40
2022-11-16T07:04:33.568Z,4.17
2022-11-16T07:07:02.929Z,6.80
2022-11-16T07:09:34.960Z,5.63
2022-11-16T07:12:05.907Z,4.50
2022-11-16T07:14:38.993Z,5.67
2022-11-16T07:17:11.059Z,4.10
2022-11-16T07:19:40.401Z,3.70
2022-11-16T07:22:11.152Z,3.53
2022-11-16T07:24:40.825Z,3.77
2022-11-16T07:27:13.372Z,3.93
2022-11-16T07:29:46.639Z,4.23
2022-11-16T07:32:26.498Z,6.00
2022-11-16T07:35:21.765Z,4.13
2022-11-16T07:37:50.809Z,3.80
2022-11-16T07:40:20.719Z,3.63
2022-11-16T07:42:55.019Z,3.40
2022-11-16T07:45:33.775Z,4.10
2022-11-16T07:48:08.928Z,3.63
2022-11-16T07:51:10.901Z,6.63
2022-11-16T07:53:45.435Z,4.57
2022-11-16T07:56:15.654Z,3.47
2022-11-16T07:58:53.623Z,3.50
2022-11-16T08:01:23.248Z,4.27
2022-11-16T08:03:54.796Z,7.10
2022-11-16T08:06:25.908Z,4.33
2022-11-16T08:08:58.785Z,7.30
2022-11-16T08:11:34.884Z,4.73
2022-11-16T08:14:08.164Z,6.73
2022-11-16T08:16:44.556Z,9.90
2022-11-16T08:19:16.271Z,8.70
2022-11-16T08:21:46.157Z,7.83
2022-11-16T08:24:17.079Z,5.63
2022-11-16T08:26:47.355Z,4.97
2022-11-16T08:29:18.491Z,3.90
2022-11-16T08:32:01.315Z,3.40
2022-11-16T08:34:42.121Z,3.77
2022-11-16T08:37:15.044Z,4.87
2022-11-16T08:39:46.879Z,3.87
2022-11-16T08:42:17.195Z,4.30
2022-11-16T08:44:52.662Z,3.67
2022-11-16T08:47:34.809Z,4.00
2022-11-16T08:50:08.721Z,4.63
2022-11-16T08:52:38.752Z,5.03
2022-11-16T08:55:09.173Z,6.10
2022-11-16T08:57:42.968Z,5.17
2022-11-16T09:00:18.269Z,4.67
2022-11-16T09:02:55.579Z,4.53
2022-11-16T09:05:29.797Z,4.37
2022-11-16T09:07:58.946Z,4.30
2022-11-16T09:10:27.904Z,4.70
2022-11-16T09:12:56.772Z,4.17
2022-11-16T09:15:32.759Z,5.27
2022-11-16T09:18:01.798Z,4.37
2022-11-16T09:20:35.945Z,4.13
2022-11-16T09:23:05.537Z,4.70
2022-11-16T09:25:34.451Z,6.93
2022-11-16T09:28:03.386Z,4.40
2022-11-16T09:30:41.395Z,6.17
2022-11-16T09:33:27.503Z,6.43
2022-11-16T09:36:00.571Z,5.97
2022-11-16T09:39:03.308Z,5.13
2022-11-16T09:41:46.956Z,6.33
2022-11-16T09:44:23.804Z,5.50
2022-11-16T09:47:06.097Z,5.13
2022-11-16T09:49:39.498Z,4.40
2022-11-16T09:52:16.206Z,5.27
2022-11-16T09:54:45.619Z,4.87
2022-11-16T09:57:19.214Z,5.47
2022-11-16T09:59:51.778Z,6.93
2022-11-16T10:02:25.707Z,5.13
2022-11-16T10:05:01.730Z,3.87
2022-11-16T10:07:35.789Z,3.50
2022-11-16T10:10:10.455Z,3.57
2022-11-16T10:12:43.950Z,3.73
2022-11-16T10:15:46.608Z,2.90
2022-11-16T10:18:24.347Z,4.47
2022-11-16T10:21:02.219Z,3.40
2022-11-16T10:23:50.128Z,3.33
2022-11-16T10:26:42.038Z,3.23
2022-11-16T10:29:20.209Z,3.10
2022-11-16T10:32:10.151Z,3.70
2022-11-16T10:34:53.010Z,3.20
2022-11-16T10:37:23.951Z,3.07
2022-11-16T10:39:53.502Z,3.87
2022-11-16T10:42:25.077Z,3.50
2022-11-16T10:45:00.325Z,3.73
2022-11-16T10:47:42.812Z,3.87
2022-11-16T10:50:31.171Z,3.53
2022-11-16T10:53:00.354Z,6.67
2022-11-16T10:55:33.038Z,4.03
2022-11-16T10:58:06.078Z,5.30
2022-11-16T11:00:45.671Z,3.97
2022-11-16T11:03:19.827Z,4.57
2022-11-16T11:05:53.991Z,7.00
2022-11-16T11:08:27.446Z,5.77
2022-11-16T11:11:34.597Z,5.27
2022-11-16T11:14:12.436Z,4.90
2022-11-16T11:16:42.889Z,4.73
2022-11-16T11:19:25.914Z,4.83
2022-11-16T11:21:58.960Z,5.47
2022-11-16T11:24:44.754Z,9.33
2022-11-16T11:27:18.371Z,7.83
2022-11-16T11:29:47.730Z,7.50
2022-11-16T11:32:23.921Z,5.40
2022-11-16T11:34:58.188Z,4.40
2022-11-16T11:37:31.881Z,4.30
2022-11-16T11:40:33.350Z,5.13
2022-11-16T11:43:17.676Z,4.10
2022-11-16T11:45:50.523Z,4.13
2022-11-16T11:48:29.185Z,4.33
2022-11-16T11:51:02.163Z,4.97
2022-11-16T11:53:52.212Z,6.87
2022-11-16T11:56:23.470Z,4.00
2022-11-16T11:58:55.457Z,3.87
2022-11-16T12:02:06.768Z,3.73
2022-11-16T12:05:23.704Z,3.77
2022-11-16T12:08:10.584Z,3.50
2022-11-16T12:10:46.367Z,3.97
2022-11-16T12:13:34.252Z,2.77
2022-11-16T12:16:28.133Z,3.20
2022-11-16T12:19:23.538Z,3.13
2022-11-16T12:22:56.550Z,2.83
2022-11-16T12:25:57.046Z,2.90
2022-11-16T12:29:02.229Z,2.57
2022-11-16T12:31:56.012Z,2.73
2022-11-16T12:34:40.497Z,3.20
2022-11-16T12:37:27.469Z,2.50
2022-11-16T12:40:24.337Z,2.80
2022-11-16T12:43:12.237Z,2.67
2022-11-16T12:45:58.004Z,3.17
2022-11-16T12:52:09.416Z,3.47
2022-11-16T12:55:27.250Z,3.63
2022-11-16T13:01:26.871Z,3.80
2022-11-16T13:04:01.428Z,3.33
2022-11-16T13:06:32.375Z,2.97
2022-11-16T13:09:12.522Z,3.20
2022-11-16T13:11:44.573Z,3.00
2022-11-16T13:14:17.570Z,2.80
2022-11-16T13:16:49.914Z,2.77
2022-11-16T13:19:26.075Z,3.10
2022-11-16T13:21:58.097Z,2.77
2022-11-16T13:24:54.897Z,3.23
2022-11-16T13:27:38.624Z,3.57
2022-11-16T13:30:16.516Z,3.37
2022-11-16T13:32:58.241Z,3.33
2022-11-16T13:35:27.711Z,2.87
2022-11-16T13:37:59.197Z,3.60
2022-11-16T13:40:37.889Z,3.73
2022-11-16T13:43:19.042Z,4.20
2022-11-16T13:45:59.732Z,4.63
2022-11-16T13:48:34.347Z,4.00
2022-11-16T13:51:06.932Z,3.37
2022-11-16T13:56:50.289Z,3.57
2022-11-16T13:59:20.081Z,3.83
2022-11-16T14:02:00.604Z,4.80
2022-11-16T14:04:44.699Z,3.83
2022-11-16T14:07:55.239Z,3.87
2022-11-16T14:10:59.269Z,6.90
2022-11-16T14:13:56.375Z,4.10
2022-11-16T14:16:57.977Z,3.90
2022-11-16T14:19:58.960Z,4.17
2022-11-16T14:22:56.706Z,4.27
2022-11-16T14:25:42.057Z,3.80
2022-11-16T14:28:38.804Z,3.87
2022-11-16T14:31:23.273Z,5.13
2022-11-16T14:34:06.635Z,4.87
2022-11-16T14:36:40.633Z,4.60
2022-11-16T14:39:29.707Z,4.80
2022-11-16T14:42:00.463Z,5.37
2022-11-16T14:44:34.846Z,6.17
2022-11-16T14:47:10.402Z,10.53
2022-11-16T14:49:41.972Z,5.00
2022-11-16T14:52:24.368Z,5.87
2022-11-16T14:54:54.920Z,14.77
2022-11-16T14:57:27.216Z,9.60
2022-11-16T15:00:09.728Z,9.03
2022-11-16T15:02:38.855Z,6.50
2022-11-16T15:05:17.022Z,8.23
2022-11-16T15:07:46.208Z,7.73
2022-11-16T15:10:17.375Z,6.50
2022-11-16T15:12:52.552Z,5.57
2022-11-16T15:15:24.308Z,5.73
2022-11-16T15:17:54.795Z,7.93
2022-11-16T15:20:27.512Z,7.17
2022-11-16T15:22:58.519Z,7.57
2022-11-16T15:25:28.963Z,9.13
2022-11-16T15:27:58.909Z,7.40
2022-11-16T15:30:28.704Z,9.73
2022-11-16T15:32:57.966Z,8.30
2022-11-16T15:35:30.509Z,12.73
2022-11-16T15:38:20.639Z,7.53
2022-11-16T15:40:51.163Z,7.27
2022-11-16T15:43:20.240Z,7.20
2022-11-16T15:45:49.080Z,9.73
2022-11-16T15:48:21.556Z,8.77
2022-11-16T15:51:04.285Z,6.40
2022-11-16T15:53:38.553Z,7.10
2022-11-16T15:56:08.960Z,9.73
2022-11-16T15:58:40.422Z,6.93
2022-11-16T16:01:10.200Z,7.47
2022-11-16T16:03:39.380Z,8.80
2022-11-16T16:06:14.267Z,8.33
2022-11-16T16:08:43.282Z,6.97
2022-11-16T16:11:13.152Z,9.30
2022-11-16T16:13:45.113Z,7.00
2022-11-16T16:16:28.933Z,7.00
2022-11-16T16:19:09.527Z,9.47
2022-11-16T16:21:52.811Z,8.70
2022-11-16T16:24:41.857Z,7.60
2022-11-16T16:27:19.998Z,8.83
2022-11-16T16:29:49.701Z,8.53
2022-11-16T16:32:27.313Z,10.33
2022-11-16T16:34:59.308Z,8.27
2022-11-16T16:37:30.831Z,9.57
2022-11-16T16:40:00.112Z,9.87
2022-11-16T16:42:28.989Z,10.20
2022-11-16T16:44:58.364Z,11.23
2022-11-16T16:47:30.808Z,9.13
2022-11-16T16:50:01.540Z,10.03
2022-11-16T16:52:32.041Z,10.57
2022-11-16T16:55:06.717Z,12.60
2022-11-16T16:57:39.000Z,11.37
2022-11-16T17:00:09.978Z,12.90
2022-11-16T17:02:39.130Z,13.90
2022-11-16T17:05:10.423Z,11.70
2022-11-16T17:07:41.383Z,10.53
2022-11-16T17:10:11.376Z,12.37
2022-11-16T17:12:44.552Z,11.40
2022-11-16T17:15:19.448Z,10.77
2022-11-16T17:17:48.994Z,11.33
2022-11-16T17:20:22.384Z,10.67
2022-11-16T17:22:53.832Z,11.93
2022-11-16T17:25:30.096Z,10.10
2022-11-16T17:27:59.293Z,10.87
2022-11-16T17:30:32.471Z,12.63
2022-11-16T17:33:06.239Z,10.10
2022-11-16T17:35:37.058Z,10.33
2022-11-16T17:38:10.418Z,10.70
2022-11-16T17:40:40.098Z,11.20
2022-11-16T17:43:11.483Z,12.07
2022-11-16T17:45:42.148Z,11.33
2022-11-16T17:48:11.121Z,13.47
2022-11-16T17:50:40.396Z,12.70
2022-11-16T17:53:10.872Z,8.87
2022-11-16T17:55:45.253Z,11.30
2022-11-16T17:58:14.254Z,14.00
2022-11-16T18:00:43.827Z,9.93
2022-11-16T18:03:13.362Z,11.93
2022-11-16T18:05:45.287Z,9.10
2022-11-16T18:08:17.414Z,11.77
2022-11-16T18:10:47.450Z,11.43
2022-11-16T18:13:19.003Z,9.10
2022-11-16T18:15:53.439Z,10.27
2022-11-16T18:18:22.935Z,8.57
2022-11-16T18:20:56.966Z,12.20
2022-11-16T18:24:09.038Z,10.53
2022-11-16T18:26:39.361Z,11.83
2022-11-16T18:29:12.472Z,13.27
2022-11-16T18:31:54.988Z,10.97
2022-11-16T18:34:28.387Z,13.77
2022-11-16T18:37:05.713Z,11.47
2022-11-16T18:43:15.043Z,11.30
2022-11-16T18:46:03.510Z,12.30
2022-11-16T18:51:51.973Z,12.03
2022-11-16T18:54:28.176Z,11.53
2022-11-16T19:00:06.456Z,12.07
2022-11-16T19:03:47.930Z,12.00
2022-11-16T19:06:46.719Z,10.20
2022-11-16T19:09:37.823Z,12.20
2022-11-16T19:12:42.976Z,13.60
2022-11-16T19:18:29.670Z,12.17
2022-11-16T19:21:06.209Z,13.37
2022-11-16T19:23:39.689Z,11.07
2022-11-16T19:26:12.906Z,10.07
2022-11-16T19:28:43.692Z,9.63
2022-11-16T19:31:13.515Z,8.73
2022-11-16T19:33:42.512Z,8.67
2022-11-16T19:36:11.834Z,11.13
2022-11-16T19:38:42.010Z,10.57
2022-11-16T19:41:14.649Z,8.83
2022-11-16T19:43:45.635Z,9.53
2022-11-16T19:46:21.653Z,11.20
2022-11-16T19:48:55.493Z,11.43
2022-11-16T19:51:24.953Z,11.50
2022-11-16T19:53:55.213Z,11.80
2022-11-16T19:56:24.774Z,11.47
2022-11-16T19:58:54.017Z,10.07
2022-11-16T20:01:23.820Z,12.37
2022-11-16T20:03:52.665Z,41.53
2022-11-16T20:06:22.179Z,17.37
2022-11-16T20:09:03.121Z,28.23
2022-11-16T20:11:33.902Z,14.87
2022-11-16T20:14:06.728Z,17.57
2022-11-16T20:16:39.265Z,21.80
2022-11-16T20:19:10.851Z,13.03
2022-11-16T20:21:40.270Z,13.87
2022-11-16T20:24:12.460Z,15.67
2022-11-16T20:26:44.820Z,11.70
2022-11-16T20:29:13.570Z,14.37
2022-11-16T20:31:43.054Z,14.27
2022-11-16T20:34:14.208Z,12.10
2022-11-16T20:36:43.869Z,16.10
2022-11-16T20:39:18.417Z,15.07
2022-11-16T20:41:48.245Z,13.07
2022-11-16T20:44:21.212Z,12.77
2022-11-16T20:46:50.779Z,15.03
2022-11-16T20:49:19.532Z,14.70
2022-11-16T20:51:49.861Z,11.60
2022-11-16T20:54:20.764Z,17.23
2022-11-16T20:56:50.465Z,12.60
2022-11-16T20:59:19.451Z,16.50
2022-11-16T21:01:49.103Z,15.03
2022-11-16T21:04:19.378Z,18.87
2022-11-16T21:06:50.256Z,18.63
2022-11-16T21:09:23.454Z,15.07
2022-11-16T21:12:09.448Z,18.23
2022-11-16T21:14:38.127Z,15.53
2022-11-16T21:17:06.822Z,16.73
2022-11-16T21:19:35.541Z,16.00
2022-11-16T21:22:04.653Z,19.63
2022-11-16T21:24:35.429Z,19.47
2022-11-16T21:27:04.229Z,21.60
2022-11-16T21:29:35.478Z,22.17
2022-11-16T21:32:04.208Z,19.03
2022-11-16T21:34:38.744Z,18.40
2022-11-16T21:37:09.028Z,18.13
2022-11-16T21:39:39.597Z,15.83
2022-11-16T21:42:12.172Z,17.07
2022-11-16T21:44:43.185Z,16.30
2022-11-16T21:47:12.035Z,15.30
2022-11-16T21:50:00.831Z,17.40
2022-11-16T21:52:30.411Z,16.93
2022-11-16T21:55:03.579Z,20.97
2022-11-16T21:57:32.514Z,20.03
2022-11-16T22:00:01.686Z,21.03
2022-11-16T22:02:40.525Z,23.97
2022-11-16T22:05:27.558Z,17.50
2022-11-16T22:07:56.490Z,16.67
2022-11-16T22:10:26.643Z,17.27
2022-11-16T22:12:55.275Z,17.63
2022-11-16T22:15:24.379Z,16.87
2022-11-16T22:17:54.474Z,18.57
2022-11-16T22:20:23.108Z,27.43
2022-11-16T22:22:51.942Z,25.50
2022-11-16T22:25:20.935Z,25.93
2022-11-16T22:28:20.358Z,24.57
2022-11-16T22:30:41.025Z,23.50
2022-11-16T22:33:10.393Z,25.20
2022-11-16T22:35:39.177Z,23.87
2022-11-16T22:38:07.930Z,22.43
2022-11-16T22:40:36.849Z,21.53
2022-11-16T22:43:07.053Z,24.10
2022-11-16T22:45:35.708Z,20.67
2022-11-16T22:48:04.464Z,19.90
2022-11-16T22:50:33.232Z,20.53
2022-11-16T22:53:01.904Z,19.43
2022-11-16T22:55:31.023Z,20.00
2022-11-16T22:57:59.719Z,21.83
2022-11-16T23:00:29.841Z,19.40
2022-11-16T23:02:58.671Z,20.93
2022-11-16T23:05:27.361Z,18.50
2022-11-16T23:07:57.461Z,19.93
2022-11-16T23:10:26.534Z,16.50
2022-11-16T23:13:12.737Z,17.37
2022-11-16T23:15:52.031Z,19.90
2022-11-16T23:18:21.079Z,18.40
2022-11-16T23:21:06.999Z,17.10
2022-11-16T23:23:53.434Z,22.83
2022-11-16T23:26:40.914Z,20.87
2022-11-16T23:29:10.478Z,19.30
2022-11-16T23:31:41.272Z,20.00
2022-11-16T23:34:10.084Z,16.47
2022-11-16T23:36:38.821Z,20.77
2022-11-16T23:39:07.820Z,18.20
2022-11-16T23:41:53.841Z,17.57
2022-11-16T23:44:22.534Z,18.23
2022-11-16T23:46:52.778Z,18.63
2022-11-16T23:49:21.557Z,16.67
2022-11-16T23:51:50.685Z,20.67
2022-11-16T23:54:19.345Z,16.93
2022-11-16T23:56:48.071Z,14.67
2022-11-16T23:59:16.957Z,16.27
